Time;durP1;ratioP1;P1;durP2;ratioP2;P2;SDS_P1;SDS_P2;PMS_P1;PMS_P2;Temp;Humidity;BMP_temperature;BMP_pressure;BME280_temperature;BME280_humidity;BME280_pressure;Samples;Min_cycle;Max_cycle;Signal;HPM_P1;HPM_P2
2023/01/02 00:00:30;;;;;;;4.47;0.93;;;20.20;63.70;;;;;;5073526;28;20068;-58
2023/01/02 00:02:55;;;;;;;2.95;1.08;;;20.10;63.60;;;;;;5073846;28;20040;-58
2023/01/02 00:05:21;;;;;;;3.50;1.20;;;20.10;63.60;;;;;;5072522;28;20492;-58
2023/01/02 00:07:47;;;;;;;2.60;1.08;;;20.10;63.60;;;;;;5073605;28;20033;-58
2023/01/02 00:10:12;;;;;;;3.80;0.98;;;20.10;63.60;;;;;;5073575;28;20045;-58
2023/01/02 00:12:38;;;;;;;3.75;1.20;;;20.10;63.60;;;;;;5073312;28;20392;-58
2023/01/02 00:15:04;;;;;;;3.85;1.23;;;20.10;63.50;;;;;;5073422;28;20129;-58
2023/01/02 00:17:29;;;;;;;2.42;1.02;;;20.10;63.50;;;;;;5072987;28;20088;-58
2023/01/02 00:19:55;;;;;;;2.38;1.00;;;20.10;63.50;;;;;;5072519;28;20093;-58
2023/01/02 00:22:21;;;;;;;4.47;1.40;;;20.10;63.50;;;;;;5073476;28;20116;-58
2023/01/02 00:24:46;;;;;;;2.42;1.13;;;20.10;63.80;;;;;;5072841;28;20194;-58
2023/01/02 00:27:13;;;;;;;3.42;1.17;;;20.10;63.50;;;;;;5073329;28;20041;-58
2023/01/02 00:29:38;;;;;;;3.35;1.10;;;20.10;63.50;;;;;;5073123;28;20055;-58
2023/01/02 00:32:04;;;;;;;3.80;1.20;;;20.10;63.50;;;;;;5072906;28;20044;-58
2023/01/02 00:34:30;;;;;;;2.65;1.25;;;20.10;63.50;;;;;;5073189;28;20078;-58
2023/01/02 00:36:55;;;;;;;2.50;1.10;;;20.00;63.40;;;;;;5073162;28;20032;-58
2023/01/02 00:39:21;;;;;;;2.38;0.80;;;20.00;63.40;;;;;;5072391;28;20044;-58
2023/01/02 00:41:47;;;;;;;4.00;1.30;;;20.00;63.40;;;;;;5073217;28;20083;-58
2023/01/02 00:44:12;;;;;;;5.05;1.15;;;20.00;63.50;;;;;;5072833;28;20044;-58
2023/01/02 00:46:38;;;;;;;2.55;1.00;;;20.00;63.40;;;;;;5067224;28;20052;-58
2023/01/02 00:49:03;;;;;;;2.50;1.00;;;20.00;63.40;;;;;;5072703;28;20079;-58
2023/01/02 00:51:29;;;;;;;3.13;1.05;;;20.00;63.30;;;;;;5072875;28;20029;-58
2023/01/02 00:53:54;;;;;;;3.25;0.90;;;20.00;63.40;;;;;;5072442;28;20052;-58
2023/01/02 00:56:20;;;;;;;2.33;0.98;;;20.00;63.30;;;;;;5072486;28;20105;-58
2023/01/02 00:58:45;;;;;;;3.60;1.23;;;20.00;63.40;;;;;;5072786;28;20053;-58
2023/01/02 01:01:11;;;;;;;1.70;1.08;;;20.00;63.40;;;;;;5071525;28;20033;-58
2023/01/02 01:03:37;;;;;;;3.28;1.10;;;20.00;63.90;;;;;;5072451;28;20398;-58
2023/01/02 01:06:07;;;;;;;3.80;1.13;;;20.00;63.30;;;;;;5072396;28;20500;-58
2023/01/02 01:08:34;;;;;;;2.38;1.00;;;20.00;63.30;;;;;;5071970;28;20040;-58
2023/01/02 01:11:05;;;;;;;3.88;1.30;;;20.00;63.30;;;;;;5072265;28;20066;-58
2023/01/02 01:13:30;;;;;;;2.20;1.10;;;19.90;63.20;;;;;;5071829;28;20048;-58
2023/01/02 01:16:02;;;;;;;2.67;1.13;;;20.00;63.30;;;;;;5071943;28;20056;-58
2023/01/02 01:18:28;;;;;;;3.83;1.20;;;19.90;63.20;;;;;;5072410;28;20433;-58
2023/01/02 01:20:53;;;;;;;2.60;1.20;;;19.90;63.20;;;;;;5072160;28;20399;-58
2023/01/02 01:23:19;;;;;;;1.60;0.90;;;19.90;63.20;;;;;;5072280;28;20452;-58
2023/01/02 01:25:44;;;;;;;3.78;1.20;;;19.90;63.20;;;;;;5072173;28;20079;-58
2023/01/02 01:28:10;;;;;;;3.13;1.23;;;19.90;63.20;;;;;;5071699;28;20161;-58
2023/01/02 01:30:35;;;;;;;2.03;0.88;;;19.90;63.20;;;;;;5072590;28;20048;-58
2023/01/02 01:33:01;;;;;;;4.20;1.20;;;19.90;63.20;;;;;;5072399;28;20162;-58
2023/01/02 01:35:27;;;;;;;3.22;1.00;;;19.90;63.20;;;;;;5071481;28;20053;-58
2023/01/02 01:37:52;;;;;;;4.35;1.50;;;19.90;63.20;;;;;;5072448;28;20040;-58
2023/01/02 01:40:18;;;;;;;3.20;1.15;;;19.90;63.20;;;;;;5071911;28;20127;-58
2023/01/02 01:42:43;;;;;;;2.28;1.13;;;19.90;63.20;;;;;;5071861;28;20036;-58
2023/01/02 01:45:13;;;;;;;2.85;1.20;;;19.90;63.10;;;;;;5071371;28;20043;-58
2023/01/02 01:47:58;;;;;;;4.40;1.17;;;19.90;63.10;;;;;;5072355;28;20098;-58
2023/01/02 01:50:28;;;;;;;4.45;1.10;;;19.90;63.00;;;;;;5069791;28;20110;-57
2023/01/02 01:52:56;;;;;;;5.30;1.15;;;19.80;63.10;;;;;;5070689;28;20069;-58
2023/01/02 01:55:32;;;;;;;2.42;1.30;;;19.80;63.10;;;;;;5065064;28;20508;-58
2023/01/02 01:57:59;;;;;;;3.90;1.15;;;19.80;63.00;;;;;;5071384;28;20087;-58
2023/01/02 02:00:25;;;;;;;4.33;1.10;;;19.80;63.00;;;;;;5071355;28;20068;-58
2023/01/02 02:02:53;;;;;;;4.18;1.20;;;19.80;63.10;;;;;;5071213;28;20037;-58
2023/01/02 02:05:20;;;;;;;2.25;1.10;;;19.80;63.00;;;;;;5070292;28;20439;-58
2023/01/02 02:07:50;;;;;;;4.10;1.13;;;19.80;63.00;;;;;;5070587;28;20100;-58
2023/01/02 02:10:16;;;;;;;3.40;1.30;;;19.80;63.10;;;;;;5070125;28;20084;-58
2023/01/02 02:12:42;;;;;;;2.83;1.10;;;19.80;63.00;;;;;;5073224;28;20072;-58
2023/01/02 02:15:08;;;;;;;3.05;0.98;;;19.80;63.00;;;;;;5075613;28;20381;-58
2023/01/02 02:17:47;;;;;;;3.47;1.30;;;19.80;63.00;;;;;;5075242;28;20476;-58
2023/01/02 02:20:54;;;;;;;4.47;1.20;;;19.80;63.00;;;;;;5075410;28;20090;-58
2023/01/02 02:23:29;;;;;;;3.97;1.13;;;19.80;62.90;;;;;;5068937;28;20481;-58
2023/01/02 02:26:38;;;;;;;3.92;1.30;;;19.80;63.00;;;;;;5075212;28;20045;-58
2023/01/02 02:29:25;;;;;;;3.50;1.15;;;19.80;62.90;;;;;;5036406;28;20083;-58
2023/01/02 02:32:35;;;;;;;3.15;1.20;;;19.80;63.00;;;;;;5053124;28;20431;-58
2023/01/02 02:35:12;;;;;;;4.38;1.30;;;19.70;62.90;;;;;;5030857;28;20089;-58
2023/01/02 02:38:03;;;;;;;2.73;1.10;;;19.70;62.90;;;;;;5033476;28;20524;-58
2023/01/02 02:40:32;;;;;;;3.72;1.20;;;19.80;62.90;;;;;;5043329;28;20057;-58
2023/01/02 02:43:29;;;;;;;3.53;0.93;;;19.70;62.90;;;;;;5075444;28;20128;-58
2023/01/02 02:46:13;;;;;;;2.58;1.10;;;19.70;62.90;;;;;;5071537;28;20052;-58
2023/01/02 02:49:03;;;;;;;3.28;1.27;;;19.70;62.90;;;;;;5074049;28;20048;-58
2023/01/02 02:51:28;;;;;;;2.10;0.95;;;19.70;62.90;;;;;;5074630;28;20067;-58
2023/01/02 02:53:57;;;;;;;3.28;1.40;;;19.70;62.90;;;;;;5074258;28;20115;-58
2023/01/02 02:56:23;;;;;;;3.40;1.10;;;19.70;62.90;;;;;;5073522;28;20430;-58
2023/01/02 02:58:49;;;;;;;3.55;1.15;;;19.70;63.50;;;;;;5075226;28;20037;-58
2023/01/02 03:01:15;;;;;;;3.70;1.40;;;19.70;62.90;;;;;;5073227;28;20055;-58
2023/01/02 03:03:41;;;;;;;3.33;1.20;;;19.70;62.90;;;;;;5074890;28;20041;-58
2023/01/02 03:06:45;;;;;;;2.90;1.00;;;19.70;62.90;;;;;;5069855;28;20036;-58
2023/01/02 03:09:21;;;;;;;3.83;1.40;;;19.70;62.90;;;;;;5074513;28;20049;-58
2023/01/02 03:11:57;;;;;;;4.13;1.23;;;19.70;63.50;;;;;;5072999;28;20036;-58
2023/01/02 03:14:26;;;;;;;3.78;1.40;;;19.60;62.80;;;;;;5073823;28;20074;-59
2023/01/02 03:16:56;;;;;;;2.97;1.50;;;19.70;62.80;;;;;;5073599;28;20045;-58
2023/01/02 03:19:44;;;;;;;4.10;1.23;;;19.60;62.80;;;;;;5073376;28;20045;-58
2023/01/02 03:22:37;;;;;;;3.80;1.13;;;19.70;62.90;;;;;;5073138;28;20106;-58
2023/01/02 03:25:02;;;;;;;4.35;1.30;;;19.60;62.80;;;;;;5071010;28;20052;-58
2023/01/02 03:27:29;;;;;;;4.68;1.50;;;19.60;62.80;;;;;;5072252;28;20067;-58
2023/01/02 03:29:55;;;;;;;2.50;1.20;;;19.60;62.80;;;;;;5073526;28;20055;-58
2023/01/02 03:32:28;;;;;;;3.28;1.35;;;19.60;62.80;;;;;;5074202;28;20044;-58
2023/01/02 03:34:54;;;;;;;4.03;1.38;;;19.60;62.80;;;;;;5072960;28;20076;-58
2023/01/02 03:37:23;;;;;;;4.95;1.50;;;19.60;62.80;;;;;;5072947;28;20075;-58
2023/01/02 03:39:51;;;;;;;2.40;1.00;;;19.60;62.80;;;;;;5073058;28;20094;-58
2023/01/02 03:42:34;;;;;;;3.08;1.45;;;19.60;62.80;;;;;;5072531;28;20052;-58
2023/01/02 03:45:05;;;;;;;2.58;1.15;;;19.60;62.80;;;;;;5072633;28;20041;-58
2023/01/02 03:47:31;;;;;;;2.97;1.25;;;19.60;62.90;;;;;;5073060;28;20105;-58
2023/01/02 03:49:58;;;;;;;2.63;1.40;;;19.60;62.80;;;;;;5073845;28;20408;-58
2023/01/02 03:52:24;;;;;;;3.00;1.48;;;19.60;62.80;;;;;;5072196;28;20455;-58
2023/01/02 03:54:49;;;;;;;2.72;1.17;;;19.60;62.80;;;;;;5074144;28;20547;-58
2023/01/02 03:57:38;;;;;;;3.33;1.20;;;19.60;62.80;;;;;;5073503;28;20512;-58
2023/01/02 04:00:12;;;;;;;3.42;1.30;;;19.60;62.80;;;;;;5072825;28;20476;-58
2023/01/02 04:02:56;;;;;;;3.70;1.20;;;19.60;62.80;;;;;;5072214;28;20392;-58
2023/01/02 04:05:50;;;;;;;3.25;1.27;;;19.60;62.80;;;;;;5072297;28;20123;-58
2023/01/02 04:08:28;;;;;;;3.28;1.30;;;19.60;62.80;;;;;;5072636;28;20051;-58
2023/01/02 04:10:54;;;;;;;3.30;1.45;;;19.60;62.80;;;;;;5072289;28;20044;-58
2023/01/02 04:13:22;;;;;;;3.40;1.55;;;19.60;62.70;;;;;;5070490;28;20400;-58
2023/01/02 04:15:48;;;;;;;2.95;1.17;;;19.60;62.70;;;;;;5073380;28;20045;-58
2023/01/02 04:18:17;;;;;;;3.30;1.38;;;19.60;62.80;;;;;;5071697;28;20048;-58
2023/01/02 04:20:46;;;;;;;2.40;1.00;;;19.60;62.70;;;;;;5073505;28;20123;-58
2023/01/02 04:23:14;;;;;;;3.65;1.15;;;19.60;62.70;;;;;;5072204;28;20060;-58
2023/01/02 04:25:54;;;;;;;4.13;1.50;;;19.60;62.80;;;;;;5071591;28;20051;-58
2023/01/02 04:28:25;;;;;;;2.95;1.33;;;19.60;62.70;;;;;;5072061;28;20048;-58
2023/01/02 04:31:06;;;;;;;3.35;1.38;;;19.60;62.60;;;;;;5073058;28;20044;-58
2023/01/02 04:33:34;;;;;;;2.55;1.20;;;19.60;62.70;;;;;;5073014;28;20114;-58
2023/01/02 04:36:07;;;;;;;3.10;1.27;;;19.60;62.60;;;;;;5071352;28;20070;-58
2023/01/02 04:38:33;;;;;;;3.08;1.40;;;19.70;62.70;;;;;;5071211;28;20082;-58
2023/01/02 04:40:58;;;;;;;2.63;1.25;;;19.70;62.60;;;;;;5069321;28;20049;-58
2023/01/02 04:43:24;;;;;;;2.10;1.08;;;19.70;62.60;;;;;;5071427;28;20045;-58
2023/01/02 04:45:49;;;;;;;3.67;1.23;;;19.70;62.60;;;;;;5072180;28;20045;-58
2023/01/02 04:48:15;;;;;;;3.63;1.40;;;19.70;62.60;;;;;;5072531;28;20543;-58
2023/01/02 04:50:41;;;;;;;2.17;1.30;;;19.70;62.50;;;;;;5072640;28;20036;-58
2023/01/02 04:53:09;;;;;;;3.75;1.20;;;19.80;62.60;;;;;;5072687;28;20083;-58
2023/01/02 04:55:35;;;;;;;3.85;1.00;;;19.80;62.60;;;;;;5071258;28;20070;-58
2023/01/02 04:58:01;;;;;;;3.60;1.10;;;19.80;62.60;;;;;;5072963;28;20040;-58
2023/01/02 05:00:26;;;;;;;3.05;1.33;;;19.80;62.60;;;;;;5071659;28;20504;-58
2023/01/02 05:02:52;;;;;;;3.67;1.83;;;19.80;62.60;;;;;;5052524;28;20419;-58
2023/01/02 05:05:17;;;;;;;2.72;1.33;;;19.80;62.60;;;;;;5051111;28;20087;-58
2023/01/02 05:07:43;;;;;;;3.10;1.10;;;19.80;62.60;;;;;;5051544;28;20040;-58
2023/01/02 05:10:09;;;;;;;3.28;1.30;;;19.80;62.50;;;;;;5052276;28;20515;-58
2023/01/02 05:12:35;;;;;;;3.10;1.20;;;19.80;62.60;;;;;;5053017;28;20496;-58
2023/01/02 05:15:01;;;;;;;3.75;1.08;;;19.90;62.60;;;;;;5051960;28;20496;-58
2023/01/02 05:17:27;;;;;;;1.70;1.00;;;19.90;62.60;;;;;;5051758;28;20045;-58
2023/01/02 05:19:52;;;;;;;2.78;1.45;;;19.90;62.60;;;;;;5052149;28;20052;-58
2023/01/02 05:25:02;;;;;;;5.05;1.50;;;19.90;62.50;;;;;;5052655;28;20053;-58
2023/01/02 05:27:27;;;;;;;2.45;1.15;;;19.90;62.50;;;;;;5051791;28;20045;-58
2023/01/02 05:29:53;;;;;;;4.18;1.30;;;19.90;62.60;;;;;;5050777;28;20044;-58
2023/01/02 05:32:19;;;;;;;3.20;1.30;;;19.90;62.50;;;;;;5052319;28;20037;-58
2023/01/02 05:34:44;;;;;;;2.63;1.20;;;19.90;62.50;;;;;;5052079;28;20048;-58
2023/01/02 05:37:10;;;;;;;2.17;1.15;;;19.90;62.50;;;;;;5051752;28;20135;-58
2023/01/02 05:39:35;;;;;;;5.43;1.40;;;19.90;62.50;;;;;;5052332;28;20069;-58
2023/01/02 05:42:01;;;;;;;3.05;1.10;;;19.90;62.50;;;;;;5051955;28;20037;-58
2023/01/02 05:44:26;;;;;;;5.03;1.40;;;20.00;62.50;;;;;;5051145;28;20045;-58
2023/01/02 05:46:52;;;;;;;3.60;1.17;;;20.00;62.50;;;;;;5052345;28;20099;-59
2023/01/02 05:49:17;;;;;;;3.38;1.33;;;20.00;62.50;;;;;;5051146;28;20404;-58
2023/01/02 05:51:43;;;;;;;3.92;1.25;;;20.00;62.50;;;;;;5052086;28;20048;-59
2023/01/02 05:54:08;;;;;;;3.28;1.60;;;20.00;62.50;;;;;;5051539;28;20044;-59
2023/01/02 05:56:34;;;;;;;2.65;1.23;;;20.00;62.50;;;;;;5051776;28;20124;-59
2023/01/02 05:58:59;;;;;;;3.03;1.35;;;20.00;62.50;;;;;;5046490;28;20401;-58
2023/01/02 06:01:28;;;;;;;3.45;1.40;;;20.00;62.50;;;;;;5051613;28;20036;-58
2023/01/02 06:03:57;;;;;;;2.33;1.20;;;20.00;62.50;;;;;;5051531;28;20127;-59
2023/01/02 06:06:36;;;;;;;4.75;1.23;;;20.00;62.50;;;;;;5051404;28;20090;-58
2023/01/02 06:09:01;;;;;;;;;;;20.00;62.50;;;;;;5051866;28;20048;-58
2023/01/02 06:11:27;;;;;;;3.28;1.13;;;20.00;62.40;;;;;;5050333;28;19916;-58
2023/01/02 06:13:53;;;;;;;3.25;1.20;;;20.00;62.50;;;;;;5051576;28;20497;-58
2023/01/02 06:16:19;;;;;;;2.25;1.35;;;20.00;62.50;;;;;;5051382;28;20079;-59
2023/01/02 06:18:44;;;;;;;2.22;1.00;;;20.00;62.50;;;;;;5051822;28;20052;-58
2023/01/02 06:21:12;;;;;;;3.25;1.38;;;20.00;62.50;;;;;;5050359;28;20045;-58
2023/01/02 06:23:37;;;;;;;1.92;1.02;;;20.00;62.50;;;;;;5051129;28;20202;-58
2023/01/02 06:26:03;;;;;;;3.58;1.02;;;20.00;62.50;;;;;;5051300;28;20083;-58
2023/01/02 06:28:29;;;;;;;2.33;0.95;;;20.00;62.60;;;;;;5051261;28;20122;-58
2023/01/02 06:31:02;;;;;;;3.42;1.05;;;20.00;62.50;;;;;;5051142;28;20068;-58
2023/01/02 06:33:28;;;;;;;3.42;1.00;;;20.00;62.50;;;;;;5051193;28;20048;-59
2023/01/02 06:36:01;;;;;;;3.00;1.10;;;20.00;62.50;;;;;;5052003;28;20155;-58
2023/01/02 06:38:27;;;;;;;3.00;1.33;;;20.00;62.50;;;;;;5051171;28;20049;-59
2023/01/02 06:40:57;;;;;;;3.40;1.30;;;20.00;62.50;;;;;;5051340;28;20408;-58
2023/01/02 06:43:22;;;;;;;2.90;1.25;;;20.00;62.50;;;;;;5050014;28;20044;-58
2023/01/02 06:45:48;;;;;;;3.45;1.13;;;20.00;62.50;;;;;;5051398;28;20170;-59
2023/01/02 06:48:14;;;;;;;3.20;1.30;;;20.00;62.50;;;;;;5051366;28;20041;-58
2023/01/02 06:50:40;;;;;;;3.45;1.08;;;20.00;62.60;;;;;;5051662;28;20129;-59
2023/01/02 06:53:06;;;;;;;3.10;1.15;;;20.00;62.50;;;;;;5051092;28;20120;-58
2023/01/02 06:55:31;;;;;;;2.05;1.13;;;20.00;62.50;;;;;;5050761;28;20041;-58
2023/01/02 06:57:57;;;;;;;3.92;1.20;;;20.00;62.50;;;;;;5051522;28;20128;-58
2023/01/02 07:00:23;;;;;;;4.10;1.17;;;20.00;62.50;;;;;;5054341;28;20069;-58
2023/01/02 07:02:48;;;;;;;2.78;1.02;;;20.00;62.60;;;;;;5055170;28;20045;-58
2023/01/02 07:05:14;;;;;;;3.75;1.00;;;19.90;62.50;;;;;;5054693;28;20041;-58
2023/01/02 07:07:39;;;;;;;2.80;1.30;;;19.90;62.50;;;;;;5054497;28;20045;-58
2023/01/02 07:10:05;;;;;;;3.13;1.20;;;20.00;62.60;;;;;;5054523;28;20037;-58
2023/01/02 07:12:34;;;;;;;2.17;1.10;;;19.90;62.50;;;;;;5054418;28;20056;-58
2023/01/02 07:14:59;;;;;;;2.00;1.10;;;19.90;62.50;;;;;;5054248;28;20057;-58
2023/01/02 07:17:25;;;;;;;2.13;1.17;;;20.00;62.60;;;;;;5054831;28;20180;-58
2023/01/02 07:19:50;;;;;;;2.20;1.25;;;20.00;63.20;;;;;;5054501;28;20083;-58
2023/01/02 07:22:16;;;;;;;1.55;1.00;;;19.90;62.50;;;;;;5054219;28;20048;-58
2023/01/02 07:24:41;;;;;;;4.50;1.45;;;19.90;62.50;;;;;;5050527;28;20493;-58
2023/01/02 07:27:07;;;;;;;3.03;1.23;;;19.90;62.50;;;;;;5054180;28;20405;-57
2023/01/02 07:29:32;;;;;;;3.15;1.40;;;19.90;62.50;;;;;;5054300;28;20428;-58
2023/01/02 07:31:58;;;;;;;4.60;1.10;;;19.90;62.50;;;;;;5054498;28;20132;-57
2023/01/02 07:34:23;;;;;;;5.38;1.40;;;19.90;62.50;;;;;;5053796;28;20041;-58
2023/01/02 07:36:49;;;;;;;2.83;1.27;;;19.90;62.50;;;;;;5054595;28;20048;-58
2023/01/02 07:39:14;;;;;;;3.67;1.13;;;19.90;62.50;;;;;;5053946;28;20048;-58
2023/01/02 07:41:40;;;;;;;4.72;1.30;;;19.90;62.50;;;;;;5053647;28;20044;-57
2023/01/02 07:44:06;;;;;;;4.10;1.38;;;19.90;62.50;;;;;;5054047;28;20120;-57
2023/01/02 07:46:31;;;;;;;3.58;1.70;;;19.90;62.50;;;;;;5052693;28;20056;-58
2023/01/02 07:48:57;;;;;;;4.53;1.50;;;19.90;62.50;;;;;;5053900;28;20041;-58
2023/01/02 07:51:23;;;;;;;3.78;1.77;;;20.00;62.60;;;;;;5053605;28;20049;-58
2023/01/02 07:53:48;;;;;;;5.68;1.88;;;20.00;62.60;;;;;;5053913;28;20033;-58
2023/01/02 07:56:14;;;;;;;3.30;1.60;;;20.00;62.60;;;;;;5053457;28;20044;-57
2023/01/02 07:58:39;;;;;;;5.60;1.50;;;20.00;62.70;;;;;;5053724;28;20048;-58
2023/01/02 08:01:09;;;;;;;4.03;1.42;;;20.00;62.80;;;;;;5054207;28;20045;-58
2023/01/02 08:03:35;;;;;;;5.72;1.75;;;20.00;62.90;;;;;;5052337;28;20041;-58
2023/01/02 08:06:02;;;;;;;3.53;1.77;;;20.00;63.00;;;;;;5053946;28;20068;-58
2023/01/02 08:08:28;;;;;;;7.15;1.83;;;20.10;63.10;;;;;;5053344;28;20443;-58
2023/01/02 08:10:53;;;;;;;7.38;2.22;;;20.00;63.00;;;;;;5052083;28;20086;-57
2023/01/02 08:13:19;;;;;;;6.38;2.53;;;20.10;63.20;;;;;;5053594;28;20554;-57
2023/01/02 08:15:45;;;;;;;7.00;3.00;;;20.10;63.20;;;;;;5052258;28;20499;-57
2023/01/02 08:18:10;;;;;;;6.40;3.00;;;20.10;63.30;;;;;;5052981;28;20037;-57
2023/01/02 08:20:36;;;;;;;8.18;3.47;;;20.10;63.30;;;;;;5053537;28;20147;-57
2023/01/02 08:23:01;;;;;;;7.85;3.78;;;20.10;63.30;;;;;;5052885;28;20052;-57
2023/01/02 08:25:27;;;;;;;8.32;3.70;;;20.10;63.30;;;;;;5052705;28;20417;-58
2023/01/02 08:27:52;;;;;;;8.18;3.63;;;20.10;63.30;;;;;;5053828;28;20072;-57
2023/01/02 08:30:18;;;;;;;8.98;4.22;;;20.10;63.30;;;;;;5052815;28;20040;-57
2023/01/02 08:32:44;;;;;;;7.70;4.20;;;20.10;63.30;;;;;;5053209;28;20037;-57
2023/01/02 08:35:09;;;;;;;10.30;4.18;;;20.10;63.30;;;;;;5053283;28;20041;-57
2023/01/02 08:37:35;;;;;;;8.23;3.60;;;20.10;63.30;;;;;;5052830;28;20094;-56
2023/01/02 08:40:00;;;;;;;5.95;3.50;;;20.10;63.20;;;;;;5052698;28;20040;-56
2023/01/02 08:42:26;;;;;;;11.25;3.85;;;20.10;63.20;;;;;;5052680;28;20452;-56
2023/01/02 08:44:52;;;;;;;8.45;3.90;;;20.10;63.30;;;;;;5052560;28;20443;-56
2023/01/02 08:47:18;;;;;;;5.88;3.45;;;20.20;63.20;;;;;;5057615;28;20033;-57
2023/01/02 08:49:43;;;;;;;8.43;3.47;;;20.20;63.20;;;;;;5073046;28;20476;-57
2023/01/02 08:52:09;;;;;;;6.10;3.67;;;20.20;63.20;;;;;;5072488;28;20052;-57
2023/01/02 08:54:34;;;;;;;6.88;3.08;;;20.20;63.10;;;;;;5071437;28;20041;-57
2023/01/02 08:57:00;;;;;;;5.18;3.05;;;20.20;63.10;;;;;;5067630;28;20029;-57
2023/01/02 08:59:26;;;;;;;5.80;3.13;;;20.20;63.10;;;;;;5051930;28;20039;-57
2023/01/02 09:01:52;;;;;;;4.38;2.92;;;20.20;63.00;;;;;;5052783;28;20045;-56
2023/01/02 09:04:17;;;;;;;5.72;3.08;;;20.20;63.10;;;;;;5052242;28;20135;-56
2023/01/02 09:06:43;;;;;;;6.07;3.20;;;20.20;63.10;;;;;;5051351;28;20048;-58
2023/01/02 09:09:09;;;;;;;7.30;3.28;;;20.20;63.10;;;;;;5051632;28;20911;-58
2023/01/02 09:11:36;;;;;;;8.35;3.05;;;20.20;63.00;;;;;;5052810;28;20119;-57
2023/01/02 09:14:02;;;;;;;9.13;3.20;;;20.20;63.00;;;;;;5051906;28;20515;-58
2023/01/02 09:16:28;;;;;;;6.07;2.72;;;20.20;63.00;;;;;;5051056;28;20049;-58
2023/01/02 09:18:58;;;;;;;9.25;3.63;;;20.20;63.00;;;;;;5048957;28;20048;-60
2023/01/02 09:21:24;;;;;;;7.15;3.60;;;20.30;63.10;;;;;;5051658;28;20477;-57
2023/01/02 09:23:50;;;;;;;6.18;2.90;;;20.20;62.90;;;;;;5052601;28;20048;-57
2023/01/02 09:26:15;;;;;;;5.82;2.75;;;20.30;62.90;;;;;;5051532;28;20055;-56
2023/01/02 09:28:41;;;;;;;6.10;3.38;;;20.30;62.80;;;;;;5052381;28;20254;-57
2023/01/02 09:31:08;;;;;;;6.93;3.13;;;20.30;62.90;;;;;;5052435;28;20040;-57
2023/01/02 09:33:34;;;;;;;7.22;3.20;;;20.30;62.90;;;;;;5050195;28;20052;-57
2023/01/02 09:36:03;;;;;;;9.10;2.90;;;20.30;62.80;;;;;;5051918;28;20041;-57
2023/01/02 09:38:29;;;;;;;5.35;2.85;;;20.30;62.80;;;;;;5044357;28;20049;-57
2023/01/02 09:40:55;;;;;;;7.07;2.70;;;20.30;62.70;;;;;;5043826;28;20044;-57
2023/01/02 09:43:30;;;;;;;6.63;2.80;;;20.30;62.70;;;;;;5051195;28;20052;-57
2023/01/02 09:45:57;;;;;;;6.25;2.97;;;20.30;62.70;;;;;;5050546;28;20141;-58
2023/01/02 09:48:22;;;;;;;7.05;2.90;;;20.30;62.60;;;;;;5050627;28;20063;-58
2023/01/02 09:50:48;;;;;;;5.88;3.10;;;20.30;62.70;;;;;;5050427;28;20048;-58
2023/01/02 09:53:14;;;;;;;6.10;2.75;;;20.30;62.60;;;;;;5050397;28;20041;-58
2023/01/02 09:55:45;;;;;;;6.53;2.88;;;20.30;62.60;;;;;;5050266;28;20041;-59
2023/01/02 09:58:34;;;;;;;4.50;2.63;;;20.20;62.60;;;;;;5034181;28;20052;-58
2023/01/02 10:01:00;;;;;;;6.78;2.80;;;20.20;62.60;;;;;;5052077;28;20048;-58
2023/01/02 10:03:48;;;;;;;4.38;2.30;;;20.20;62.70;;;;;;5050189;28;20102;-58
2023/01/02 10:06:13;;;;;;;;;;;20.30;62.80;;;;;;5050752;28;20492;-59
2023/01/02 10:08:45;;;;;;;6.03;2.40;;;20.30;62.70;;;;;;5051714;28;19974;-58
2023/01/02 10:11:42;;;;;;;5.88;2.72;;;20.20;62.70;;;;;;5050294;28;20045;-59
2023/01/02 10:14:15;;;;;;;5.78;2.85;;;20.20;62.70;;;;;;5052029;28;20049;-59
2023/01/02 10:16:43;;;;;;;3.95;2.35;;;20.20;62.80;;;;;;5050480;28;20033;-59
2023/01/02 10:19:16;;;;;;;5.90;3.00;;;20.20;62.80;;;;;;5050576;28;20049;-58
2023/01/02 10:21:41;;;;;;;5.00;2.90;;;20.20;62.80;;;;;;5045934;28;20044;-59
2023/01/02 10:24:37;;;;;;;5.90;2.45;;;20.20;62.80;;;;;;5049904;28;20350;-59
2023/01/02 10:27:02;;;;;;;4.22;2.50;;;20.20;62.70;;;;;;5042561;28;20053;-59
2023/01/02 10:29:30;;;;;;;4.82;2.08;;;20.20;62.80;;;;;;5033454;28;20594;-58
2023/01/02 10:32:05;;;;;;;5.43;2.20;;;20.20;62.80;;;;;;5050378;28;20496;-58
2023/01/02 10:34:57;;;;;;;4.32;2.08;;;20.20;62.80;;;;;;5053899;28;20033;-59
2023/01/02 10:37:24;;;;;;;5.65;2.33;;;20.20;62.80;;;;;;5054094;28;20064;-59
2023/01/02 10:39:50;;;;;;;3.35;2.13;;;20.20;62.80;;;;;;5037862;28;20488;-58
2023/01/02 10:42:16;;;;;;;4.30;2.00;;;20.20;62.90;;;;;;5054406;28;20037;-59
2023/01/02 10:44:42;;;;;;;6.13;2.35;;;20.20;62.80;;;;;;5053635;28;20056;-58
2023/01/02 10:47:30;;;;;;;4.05;2.00;;;20.20;62.90;;;;;;5055625;28;20076;-59
2023/01/02 10:49:56;;;;;;;3.50;2.10;;;20.20;62.90;;;;;;5054317;28;20424;-60
2023/01/02 10:52:39;;;;;;;6.47;2.50;;;20.20;62.80;;;;;;5054041;28;20033;-59
2023/01/02 10:55:05;;;;;;;4.60;1.88;;;20.20;62.80;;;;;;5055100;28;20110;-60
2023/01/02 10:57:40;;;;;;;4.25;1.70;;;20.20;62.90;;;;;;5054255;28;20419;-59
2023/01/02 11:00:07;;;;;;;4.07;2.10;;;20.20;62.80;;;;;;5054907;28;20049;-59
2023/01/02 11:02:39;;;;;;;7.25;1.65;;;20.20;62.80;;;;;;5053934;28;20045;-59
2023/01/02 11:05:06;;;;;;;4.38;1.95;;;20.20;62.90;;;;;;5054883;28;20207;-59
2023/01/02 11:07:36;;;;;;;3.90;1.52;;;20.20;63.00;;;;;;5054408;28;20112;-59
2023/01/02 11:10:02;;;;;;;3.35;1.55;;;20.20;63.00;;;;;;5054961;28;20037;-59
2023/01/02 11:12:27;;;;;;;3.25;1.60;;;20.20;63.00;;;;;;5054204;28;20059;-59
2023/01/02 11:15:10;;;;;;;3.58;1.75;;;20.20;63.00;;;;;;5053758;28;20049;-59
2023/01/02 11:17:42;;;;;;;3.80;1.95;;;20.20;62.90;;;;;;5051548;28;20459;-59
2023/01/02 11:20:22;;;;;;;5.28;1.73;;;20.20;63.00;;;;;;5053905;28;20041;-58
2023/01/02 11:22:48;;;;;;;3.55;1.77;;;20.20;63.00;;;;;;5054560;28;20044;-59
2023/01/02 11:25:23;;;;;;;3.22;1.45;;;20.20;63.00;;;;;;5052867;28;20038;-59
2023/01/02 11:27:49;;;;;;;2.80;1.95;;;20.20;63.00;;;;;;5052268;28;20037;-58
2023/01/02 11:30:36;;;;;;;3.15;1.38;;;20.20;62.90;;;;;;5052732;28;20098;-60
2023/01/02 11:33:23;;;;;;;4.45;1.42;;;20.20;62.80;;;;;;5042809;28;20377;-56
2023/01/02 11:35:52;;;;;;;2.10;1.30;;;20.20;62.90;;;;;;5053963;28;20037;-56
2023/01/02 11:38:38;;;;;;;3.38;1.30;;;20.20;62.80;;;;;;5053945;28;20037;-56
2023/01/02 11:41:04;;;;;;;5.35;1.58;;;20.20;62.90;;;;;;5052686;28;20568;-56
2023/01/02 11:43:48;;;;;;;4.32;1.77;;;20.20;62.90;;;;;;5053320;28;20544;-56
2023/01/02 11:46:23;;;;;;;3.28;1.55;;;20.20;63.60;;;;;;5053176;28;20049;-56
2023/01/02 11:48:49;;;;;;;2.83;1.58;;;20.20;63.00;;;;;;5052445;28;20090;-56
2023/01/02 11:51:15;;;;;;;2.83;1.40;;;20.20;63.00;;;;;;5035949;28;20412;-56
2023/01/02 11:53:41;;;;;;;3.05;1.30;;;20.20;63.00;;;;;;5046654;28;20155;-56
2023/01/02 11:56:12;;;;;;;4.45;1.67;;;20.20;63.00;;;;;;5068631;28;20044;-56
2023/01/02 11:58:38;;;;;;;4.05;1.88;;;20.20;62.90;;;;;;5064766;28;20059;-57
2023/01/02 12:01:30;;;;;;;5.15;2.08;;;20.10;62.70;;;;;;5053443;28;20479;-56
2023/01/02 12:03:56;;;;;;;5.20;2.63;;;20.20;62.60;;;;;;5053313;28;20037;-56
2023/01/02 12:07:00;;;;;;;7.00;3.28;;;20.10;62.60;;;;;;5053453;28;20420;-56
2023/01/02 12:09:43;;;;;;;5.25;2.40;;;20.10;62.40;;;;;;5051845;28;20052;-56
2023/01/02 12:12:46;;;;;;;4.43;2.40;;;20.20;62.50;;;;;;5053607;28;20556;-56
2023/01/02 12:15:33;;;;;;;6.07;2.58;;;20.10;62.30;;;;;;5052620;28;20049;-57
2023/01/02 12:18:37;;;;;;;7.80;2.95;;;20.10;62.30;;;;;;5051816;28;20076;-57
2023/01/02 12:21:09;;;;;;;7.80;3.10;;;20.10;62.20;;;;;;5052348;28;20057;-57
2023/01/02 12:23:42;;;;;;;6.50;2.35;;;20.10;62.40;;;;;;5051519;28;20044;-57
2023/01/02 12:26:16;;;;;;;5.47;2.55;;;20.10;62.40;;;;;;5052525;28;20041;-57
2023/01/02 12:28:47;;;;;;;6.05;2.67;;;20.10;62.40;;;;;;5053508;28;20041;-57
2023/01/02 12:31:21;;;;;;;8.80;3.17;;;20.10;62.50;;;;;;5052723;28;20044;-57
2023/01/02 12:33:56;;;;;;;10.40;2.88;;;20.10;62.50;;;;;;5053443;28;20041;-57
2023/01/02 12:36:28;;;;;;;6.43;2.53;;;20.10;62.50;;;;;;5052606;28;20144;-57
2023/01/02 12:39:14;;;;;;;8.93;3.42;;;20.10;62.60;;;;;;5051855;28;20477;-57
2023/01/02 12:42:12;;;;;;;8.07;2.88;;;20.10;62.50;;;;;;5052069;28;20045;-57
2023/01/02 12:44:47;;;;;;;7.80;3.03;;;20.10;62.60;;;;;;5032629;28;20125;-56
2023/01/02 12:47:17;;;;;;;9.05;3.00;;;20.10;62.60;;;;;;5051828;28;20497;-57
2023/01/02 12:50:10;;;;;;;7.95;3.05;;;20.10;62.70;;;;;;5052704;28;20045;-58
2023/01/02 12:52:41;;;;;;;6.28;2.85;;;20.10;62.60;;;;;;5046078;28;20048;-57
2023/01/02 12:55:42;;;;;;;9.18;2.60;;;20.10;62.70;;;;;;5052662;28;20049;-56
2023/01/02 12:58:26;;;;;;;8.40;2.70;;;20.20;62.60;;;;;;5019378;28;20041;-57
2023/01/02 13:01:20;;;;;;;6.40;2.65;;;20.20;62.50;;;;;;5051223;28;20086;-57
2023/01/02 13:03:59;;;;;;;7.05;2.72;;;20.20;62.60;;;;;;5009045;28;20054;-56
2023/01/02 13:06:38;;;;;;;5.93;2.85;;;20.20;62.60;;;;;;5032127;28;20041;-57